createdAt,value
2022-12-18T00:01:22.039Z,-4.46
2022-12-18T00:03:49.722Z,-4.47
2022-12-18T00:06:17.627Z,-4.41
2022-12-18T00:08:45.802Z,-4.43
2022-12-18T00:11:15.609Z,-4.41
2022-12-18T00:13:43.412Z,-4.34
2022-12-18T00:16:14.351Z,-4.34
2022-12-18T00:18:42.560Z,-4.32
2022-12-18T00:21:11.665Z,-4.29
2022-12-18T00:23:40.122Z,-4.22
2022-12-18T00:26:11.372Z,-4.20
2022-12-18T00:28:38.526Z,-4.12
2022-12-18T00:31:08.574Z,-4.17
2022-12-18T00:33:36.964Z,-4.22
2022-12-18T00:36:05.193Z,-4.22
2022-12-18T00:38:32.926Z,-4.23
2022-12-18T00:40:59.688Z,-4.21
2022-12-18T00:43:27.640Z,-4.19
2022-12-18T00:45:54.837Z,-4.19
2022-12-18T00:48:22.771Z,-4.18
2022-12-18T00:50:50.275Z,-4.21
2022-12-18T00:53:18.201Z,-4.17
2022-12-18T00:55:46.658Z,-4.31
2022-12-18T00:58:16.728Z,-4.35
2022-12-18T01:00:45.495Z,-4.40
2022-12-18T01:03:15.357Z,-4.50
2022-12-18T01:05:43.040Z,-4.56
2022-12-18T01:08:10.434Z,-4.60
2022-12-18T01:10:37.454Z,-4.62
2022-12-18T01:13:04.828Z,-4.71
2022-12-18T01:15:31.918Z,-4.71
2022-12-18T01:17:58.656Z,-4.70
2022-12-18T01:20:25.419Z,-4.71
2022-12-18T01:22:52.222Z,-4.76
2022-12-18T01:25:19.044Z,-4.71
2022-12-18T01:27:45.735Z,-4.71
2022-12-18T01:30:13.039Z,-4.65
2022-12-18T01:32:40.080Z,-4.62
2022-12-18T01:35:07.878Z,-4.71
2022-12-18T01:37:34.730Z,-4.67
2022-12-18T01:40:01.484Z,-4.61
2022-12-18T01:42:28.636Z,-4.71
2022-12-18T01:44:58.913Z,-4.83
2022-12-18T01:47:28.391Z,-4.84
2022-12-18T01:49:56.895Z,-4.93
2022-12-18T01:52:29.260Z,-4.98
2022-12-18T01:54:57.191Z,-5.02
2022-12-18T01:57:26.301Z,-4.94
2022-12-18T01:59:57.795Z,-4.92
2022-12-18T02:02:27.814Z,-4.91
2022-12-18T02:04:55.009Z,-4.76
2022-12-18T02:07:48.495Z,-4.81
2022-12-18T02:11:01.388Z,-4.85
2022-12-18T02:13:31.934Z,-4.84
2022-12-18T02:16:22.517Z,-4.76
2022-12-18T02:18:55.169Z,-4.70
2022-12-18T02:21:37.263Z,-4.63
2022-12-18T02:24:34.377Z,-4.55
2022-12-18T02:27:05.852Z,-4.56
2022-12-18T02:29:54.368Z,-4.54
2022-12-18T02:32:32.768Z,-4.50
2022-12-18T02:35:02.813Z,-4.46
2022-12-18T02:37:31.776Z,-4.41
2022-12-18T02:40:00.451Z,-4.32
2022-12-18T02:42:29.077Z,-4.31
2022-12-18T02:44:55.995Z,-4.27
2022-12-18T02:47:25.183Z,-4.22
2022-12-18T02:50:10.965Z,-4.18
2022-12-18T02:52:53.148Z,-4.13
2022-12-18T02:55:41.812Z,-4.13
2022-12-18T02:58:16.241Z,-4.20
2022-12-18T03:01:16.645Z,-4.27
2022-12-18T03:03:48.791Z,-4.27
2022-12-18T03:06:25.681Z,-4.29
2022-12-18T03:08:59.425Z,-4.33
2022-12-18T03:11:49.790Z,-4.40
2022-12-18T03:14:21.010Z,-4.37
2022-12-18T03:16:53.452Z,-4.35
2022-12-18T03:19:25.475Z,-4.41
2022-12-18T03:21:58.270Z,-4.39
2022-12-18T03:24:29.462Z,-4.40
2022-12-18T03:27:03.170Z,-4.40
2022-12-18T03:29:36.241Z,-4.40
2022-12-18T03:32:09.143Z,-4.39
2022-12-18T03:34:39.753Z,-4.36
2022-12-18T03:37:07.822Z,-4.36
2022-12-18T03:39:37.376Z,-4.33
2022-12-18T03:42:22.415Z,-4.30
2022-12-18T03:44:58.341Z,-4.28
2022-12-18T03:47:59.650Z,-4.27
2022-12-18T03:50:42.448Z,-4.20
2022-12-18T03:53:15.582Z,-4.13
2022-12-18T03:55:44.647Z,-4.05
2022-12-18T03:58:17.358Z,-3.96
2022-12-18T04:00:45.875Z,-3.92
2022-12-18T04:03:14.971Z,-3.88
2022-12-18T04:05:44.043Z,-3.83
2022-12-18T04:08:11.431Z,-3.80
2022-12-18T04:10:38.619Z,-3.70
2022-12-18T04:13:05.559Z,-3.68
2022-12-18T04:15:36.694Z,-3.68
2022-12-18T04:18:03.920Z,-3.64
2022-12-18T04:20:31.033Z,-3.61
2022-12-18T04:22:57.823Z,-3.57
2022-12-18T04:25:24.619Z,-3.57
2022-12-18T04:27:51.817Z,-3.57
2022-12-18T04:30:18.519Z,-3.57
2022-12-18T04:32:50.537Z,-3.51
2022-12-18T04:35:19.104Z,-3.55
2022-12-18T04:37:46.030Z,-3.57
2022-12-18T04:40:13.468Z,-3.55
2022-12-18T04:42:41.497Z,-3.51
2022-12-18T04:45:09.132Z,-3.53
2022-12-18T04:47:37.074Z,-3.55
2022-12-18T04:50:04.793Z,-3.56
2022-12-18T04:52:31.901Z,-3.56
2022-12-18T04:54:59.131Z,-3.50
2022-12-18T04:57:25.995Z,-3.57
2022-12-18T04:59:53.104Z,-3.59
2022-12-18T05:02:20.073Z,-3.61
2022-12-18T05:04:47.659Z,-3.61
2022-12-18T05:07:14.869Z,-3.68
2022-12-18T05:09:41.832Z,-3.70
2022-12-18T05:12:09.011Z,-3.87
2022-12-18T05:14:36.718Z,-3.93
2022-12-18T05:17:03.854Z,-4.03
2022-12-18T05:19:30.990Z,-4.05
2022-12-18T05:21:58.542Z,-4.04
2022-12-18T05:24:25.548Z,-4.03
2022-12-18T05:26:52.775Z,-4.13
2022-12-18T05:29:19.835Z,-4.14
2022-12-18T05:31:48.443Z,-4.24
2022-12-18T05:34:15.901Z,-4.16
2022-12-18T05:36:43.020Z,-4.22
2022-12-18T05:39:11.714Z,-4.30
2022-12-18T05:41:38.776Z,-4.35
2022-12-18T05:44:06.071Z,-4.43
2022-12-18T05:46:33.430Z,-4.42
2022-12-18T05:49:02.107Z,-4.52
2022-12-18T05:51:29.054Z,-4.48
2022-12-18T05:53:56.761Z,-4.48
2022-12-18T05:56:24.581Z,-4.54
2022-12-18T05:58:55.695Z,-4.55
2022-12-18T06:01:26.143Z,-4.56
2022-12-18T06:03:53.280Z,-4.58
2022-12-18T06:06:23.357Z,-4.57
2022-12-18T06:08:51.541Z,-4.54
2022-12-18T06:11:22.119Z,-4.56
2022-12-18T06:13:57.911Z,-4.53
2022-12-18T06:16:25.931Z,-4.61
2022-12-18T06:18:53.132Z,-4.62
2022-12-18T06:21:20.740Z,-4.70
2022-12-18T06:23:47.909Z,-4.83
2022-12-18T06:26:15.520Z,-4.84
2022-12-18T06:28:42.864Z,-4.94
2022-12-18T06:31:11.013Z,-4.91
2022-12-18T06:33:39.813Z,-4.89
2022-12-18T06:36:10.520Z,-4.93
2022-12-18T06:38:39.293Z,-4.94
2022-12-18T06:41:10.258Z,-4.92
2022-12-18T06:43:38.300Z,-5.01
2022-12-18T06:46:06.181Z,-4.99
2022-12-18T06:48:34.076Z,-4.91
2022-12-18T06:51:01.432Z,-5.01
2022-12-18T06:53:29.691Z,-5.03
2022-12-18T06:56:10.351Z,-5.06
2022-12-18T06:58:39.114Z,-5.13
2022-12-18T07:01:09.705Z,-5.18
2022-12-18T07:03:38.785Z,-5.24
2022-12-18T07:06:05.927Z,-5.17
2022-12-18T07:08:33.733Z,-5.31
2022-12-18T07:11:04.721Z,-5.38
2022-12-18T07:13:32.127Z,-5.48
2022-12-18T07:16:11.192Z,-5.52
2022-12-18T07:18:42.448Z,-5.54
2022-12-18T07:21:15.238Z,-5.62
2022-12-18T07:23:42.725Z,-5.70
2022-12-18T07:26:12.491Z,-5.67
2022-12-18T07:28:41.522Z,-5.73
2022-12-18T07:31:12.888Z,-5.70
2022-12-18T07:33:40.286Z,-5.67
2022-12-18T07:36:10.551Z,-5.68
2022-12-18T07:38:38.147Z,-5.68
2022-12-18T07:41:14.283Z,-5.61
2022-12-18T07:43:42.500Z,-5.66
2022-12-18T07:46:10.790Z,-5.79
2022-12-18T07:48:43.768Z,-5.73
2022-12-18T07:51:13.512Z,-5.53
2022-12-18T07:53:41.463Z,-5.61
2022-12-18T07:56:28.214Z,-5.73
2022-12-18T07:58:55.866Z,-5.78
2022-12-18T08:01:23.012Z,-5.75
2022-12-18T08:03:52.293Z,-5.74
2022-12-18T08:06:22.473Z,-5.75
2022-12-18T08:08:56.101Z,-5.76
2022-12-18T08:11:25.045Z,-5.71
2022-12-18T08:13:52.928Z,-5.67
2022-12-18T08:16:21.336Z,-5.62
2022-12-18T08:18:49.761Z,-5.65
2022-12-18T08:21:21.932Z,-5.61
2022-12-18T08:23:51.501Z,-5.55
2022-12-18T08:26:20.895Z,-5.56
2022-12-18T08:28:49.239Z,-5.50
2022-12-18T08:31:19.115Z,-5.44
2022-12-18T08:33:48.813Z,-5.47
2022-12-18T08:36:16.051Z,-5.41
2022-12-18T08:38:43.316Z,-5.26
2022-12-18T08:41:12.635Z,-5.28
2022-12-18T08:43:58.677Z,-5.21
2022-12-18T08:46:27.768Z,-5.26
2022-12-18T08:48:56.844Z,-5.16
2022-12-18T08:51:23.959Z,-5.10
2022-12-18T08:53:50.715Z,-5.02
2022-12-18T08:56:17.816Z,-4.94
2022-12-18T08:58:45.289Z,-4.88
2022-12-18T09:01:13.624Z,-4.82
2022-12-18T09:03:41.581Z,-4.79
2022-12-18T09:06:08.969Z,-4.71
2022-12-18T09:08:38.203Z,-4.63
2022-12-18T09:11:13.851Z,-4.58
2022-12-18T09:13:41.075Z,-4.55
2022-12-18T09:16:09.073Z,-4.50
2022-12-18T09:18:35.861Z,-4.41
2022-12-18T09:21:10.112Z,-4.36
2022-12-18T09:23:36.906Z,-4.27
2022-12-18T09:26:04.473Z,-4.18
2022-12-18T09:28:31.611Z,-4.07
2022-12-18T09:30:59.741Z,-4.00
2022-12-18T09:33:26.727Z,-3.84
2022-12-18T09:35:54.121Z,-3.66
2022-12-18T09:38:21.251Z,-3.55
2022-12-18T09:40:57.394Z,-3.39
2022-12-18T09:43:42.057Z,-3.16
2022-12-18T09:46:28.424Z,-3.03
2022-12-18T09:49:01.852Z,-2.83
2022-12-18T09:51:37.280Z,-2.71
2022-12-18T09:54:08.374Z,-2.56
2022-12-18T09:56:40.184Z,-2.46
2022-12-18T09:59:06.915Z,-2.24
2022-12-18T10:01:43.210Z,-2.10
2022-12-18T10:04:11.454Z,-1.94
2022-12-18T10:07:20.861Z,-1.83
2022-12-18T10:09:53.907Z,-1.54
2022-12-18T10:12:29.699Z,-1.44
2022-12-18T10:15:05.629Z,-1.34
2022-12-18T10:17:47.763Z,-1.16
2022-12-18T10:20:33.045Z,-1.00
2022-12-18T10:23:12.309Z,-0.75
2022-12-18T10:25:52.369Z,-0.59
2022-12-18T10:28:21.287Z,-0.55
2022-12-18T10:30:48.122Z,-0.43
2022-12-18T10:33:22.956Z,-0.38
2022-12-18T10:35:53.535Z,-0.06
2022-12-18T10:38:21.505Z,-0.06
2022-12-18T10:41:03.851Z,0.11
2022-12-18T10:43:36.062Z,0.26
2022-12-18T10:46:09.215Z,0.32
2022-12-18T10:48:48.781Z,0.36
2022-12-18T10:51:34.546Z,0.41
2022-12-18T10:54:02.658Z,0.61
2022-12-18T10:56:32.552Z,0.61
2022-12-18T10:59:06.026Z,0.61
2022-12-18T11:01:47.089Z,0.63
2022-12-18T11:04:36.417Z,0.65
2022-12-18T11:07:06.623Z,0.79
2022-12-18T11:09:36.761Z,0.95
2022-12-18T11:12:24.230Z,0.93
2022-12-18T11:14:53.645Z,0.98
2022-12-18T11:17:26.090Z,1.05
2022-12-18T11:20:08.098Z,1.17
2022-12-18T11:22:37.866Z,1.22
2022-12-18T11:25:36.175Z,1.24
2022-12-18T11:28:06.917Z,1.30
2022-12-18T11:30:36.917Z,1.36
2022-12-18T11:33:13.449Z,1.36
2022-12-18T11:35:43.403Z,1.43
2022-12-18T11:38:13.003Z,1.56
2022-12-18T11:40:46.093Z,1.59
2022-12-18T11:43:27.259Z,1.54
2022-12-18T11:46:02.657Z,1.59
2022-12-18T11:48:46.671Z,1.72
2022-12-18T11:51:26.227Z,1.69
2022-12-18T11:53:54.585Z,1.69
2022-12-18T11:56:45.162Z,1.73
2022-12-18T11:59:50.547Z,1.83
2022-12-18T12:03:00.211Z,1.92
2022-12-18T12:05:45.297Z,1.79
2022-12-18T12:08:21.059Z,1.88
2022-12-18T12:11:09.781Z,1.92
2022-12-18T12:13:55.093Z,1.90
2022-12-18T12:16:35.800Z,1.87
2022-12-18T12:19:44.163Z,1.86
2022-12-18T12:22:37.842Z,1.90
2022-12-18T12:25:41.700Z,1.91
2022-12-18T12:28:17.738Z,1.86
2022-12-18T12:31:12.704Z,1.92
2022-12-18T12:34:02.096Z,1.88
2022-12-18T12:36:47.352Z,1.92
2022-12-18T12:39:20.614Z,1.97
2022-12-18T12:42:06.671Z,1.85
2022-12-18T12:44:41.128Z,1.83
2022-12-18T12:47:16.652Z,1.84
2022-12-18T12:49:48.721Z,1.86
2022-12-18T12:52:28.654Z,1.80
2022-12-18T12:54:57.831Z,1.85
2022-12-18T12:58:09.395Z,1.79
2022-12-18T13:00:48.615Z,1.74
2022-12-18T13:03:35.822Z,1.74
2022-12-18T13:06:13.831Z,1.76
2022-12-18T13:09:01.486Z,1.80
2022-12-18T13:12:01.429Z,1.79
2022-12-18T13:14:38.953Z,1.70
2022-12-18T13:17:15.777Z,1.70
2022-12-18T13:25:42.305Z,1.71
2022-12-18T13:28:26.216Z,1.70
2022-12-18T13:30:59.418Z,1.71
2022-12-18T13:33:27.126Z,1.77
2022-12-18T13:36:13.219Z,1.71
2022-12-18T13:38:43.867Z,1.63
2022-12-18T13:41:19.167Z,1.62
2022-12-18T13:43:49.122Z,1.57
2022-12-18T13:46:23.190Z,1.56
2022-12-18T13:48:56.232Z,1.51
2022-12-18T13:51:25.311Z,1.55
2022-12-18T13:53:58.485Z,1.51
2022-12-18T13:56:31.854Z,1.53
2022-12-18T13:59:18.597Z,1.49
2022-12-18T14:01:56.389Z,1.52
2022-12-18T14:04:35.850Z,1.47
2022-12-18T14:07:04.405Z,1.45
2022-12-18T14:09:37.613Z,1.42
2022-12-18T14:12:26.256Z,1.39
2022-12-18T14:14:55.308Z,1.41
2022-12-18T14:17:24.034Z,1.37
2022-12-18T14:19:52.519Z,1.38
2022-12-18T14:22:30.944Z,1.35
2022-12-18T14:25:13.668Z,1.36
2022-12-18T14:28:07.630Z,1.30
2022-12-18T14:30:40.620Z,1.32
2022-12-18T14:33:15.231Z,1.27
2022-12-18T14:35:53.905Z,1.28
2022-12-18T14:38:23.654Z,1.25
2022-12-18T14:41:05.960Z,1.32
2022-12-18T14:43:35.641Z,1.27
2022-12-18T14:46:04.465Z,1.28
2022-12-18T14:48:37.013Z,1.20
2022-12-18T14:51:17.817Z,1.20
2022-12-18T14:53:54.370Z,1.24
2022-12-18T14:56:25.716Z,1.21
2022-12-18T14:58:56.569Z,1.29
2022-12-18T15:01:26.995Z,1.19
2022-12-18T15:03:56.778Z,1.21
2022-12-18T15:06:44.379Z,1.18
2022-12-18T15:09:24.272Z,1.10
2022-12-18T15:11:57.771Z,1.15
2022-12-18T15:14:38.109Z,1.17
2022-12-18T15:17:15.814Z,1.11
2022-12-18T15:19:44.696Z,1.05
2022-12-18T15:22:28.244Z,1.03
2022-12-18T15:24:57.168Z,1.05
2022-12-18T15:27:27.985Z,1.11
2022-12-18T15:30:10.650Z,1.03
2022-12-18T15:32:39.071Z,1.03
2022-12-18T15:35:12.092Z,0.98
2022-12-18T15:37:41.760Z,1.00
2022-12-18T15:40:13.925Z,1.03
2022-12-18T15:43:00.040Z,0.95
2022-12-18T15:45:26.961Z,1.02
2022-12-18T15:47:53.724Z,0.96
2022-12-18T15:50:22.526Z,0.95
2022-12-18T15:52:52.113Z,1.08
2022-12-18T15:55:42.834Z,0.99
2022-12-18T15:58:11.283Z,0.89
2022-12-18T16:00:41.135Z,0.86
2022-12-18T16:03:10.391Z,0.92
2022-12-18T16:05:37.529Z,0.87
2022-12-18T16:08:04.526Z,0.91
2022-12-18T16:10:31.749Z,0.92
2022-12-18T16:12:59.167Z,0.91
2022-12-18T16:15:26.615Z,0.90
2022-12-18T16:17:53.317Z,0.86
2022-12-18T16:20:23.006Z,0.83
2022-12-18T16:22:50.611Z,0.77
2022-12-18T16:25:25.215Z,0.74
2022-12-18T16:27:53.508Z,0.74
2022-12-18T16:30:23.732Z,0.75
2022-12-18T16:32:51.048Z,0.72
2022-12-18T16:35:18.170Z,0.79
2022-12-18T16:37:45.165Z,0.76
2022-12-18T16:40:14.629Z,0.71
2022-12-18T16:42:43.309Z,0.74
2022-12-18T16:45:13.294Z,0.75
2022-12-18T16:47:40.916Z,0.65
2022-12-18T16:50:09.080Z,0.71
2022-12-18T16:52:36.228Z,0.62
2022-12-18T16:55:04.051Z,0.62
2022-12-18T16:57:31.355Z,0.69
2022-12-18T17:00:04.461Z,0.68
2022-12-18T17:02:32.171Z,0.66
2022-12-18T17:04:59.691Z,0.64
2022-12-18T17:07:28.506Z,0.58
2022-12-18T17:09:55.799Z,0.63
2022-12-18T17:12:23.630Z,0.57
2022-12-18T17:14:50.808Z,0.56
2022-12-18T17:17:21.320Z,0.53
2022-12-18T17:19:49.638Z,0.46
2022-12-18T17:22:16.832Z,0.51
2022-12-18T17:24:44.000Z,0.46
2022-12-18T17:27:10.983Z,0.42
2022-12-18T17:29:42.482Z,0.47
2022-12-18T17:32:13.677Z,0.47
2022-12-18T17:34:41.237Z,0.42
2022-12-18T17:37:08.519Z,0.49
2022-12-18T17:39:35.652Z,0.54
2022-12-18T17:42:02.672Z,0.43
2022-12-18T17:44:29.861Z,0.56
2022-12-18T17:46:57.110Z,0.42
2022-12-18T17:49:24.216Z,0.48
2022-12-18T17:51:52.110Z,0.47
2022-12-18T17:54:19.349Z,0.42
2022-12-18T17:56:46.511Z,0.37
2022-12-18T17:59:13.649Z,0.37
2022-12-18T18:01:44.397Z,0.29
2022-12-18T18:04:12.122Z,0.24
2022-12-18T18:06:39.536Z,0.31
2022-12-18T18:09:08.651Z,0.39
2022-12-18T18:12:05.667Z,0.28
2022-12-18T18:14:33.201Z,0.27
2022-12-18T18:17:04.225Z,0.31
2022-12-18T18:19:32.689Z,0.32
2022-12-18T18:21:59.597Z,0.26
2022-12-18T18:24:26.372Z,0.22
2022-12-18T18:26:56.728Z,0.31
2022-12-18T18:29:26.530Z,0.23
2022-12-18T18:31:54.240Z,0.18
2022-12-18T18:34:26.507Z,0.21
2022-12-18T18:36:53.619Z,0.19
2022-12-18T18:39:21.139Z,0.21
2022-12-18T18:41:49.245Z,0.19
2022-12-18T18:44:18.339Z,0.22
2022-12-18T18:46:45.424Z,0.20
2022-12-18T18:49:13.739Z,0.25
2022-12-18T18:51:42.035Z,0.25
2022-12-18T18:54:09.698Z,0.25
2022-12-18T18:57:04.116Z,0.22
2022-12-18T18:59:31.641Z,0.12
2022-12-18T19:02:00.664Z,0.14
2022-12-18T19:04:36.408Z,0.25
2022-12-18T19:07:05.490Z,0.21
2022-12-18T19:09:32.449Z,0.23
2022-12-18T19:12:18.258Z,0.20
2022-12-18T19:14:45.297Z,0.19
2022-12-18T19:17:12.185Z,0.23
2022-12-18T19:19:39.663Z,0.26
2022-12-18T19:22:06.891Z,0.17
2022-12-18T19:24:33.962Z,0.16
2022-12-18T19:27:01.027Z,0.20
2022-12-18T19:29:29.004Z,0.20
2022-12-18T19:31:55.695Z,0.21
2022-12-18T19:34:22.670Z,0.27
2022-12-18T19:36:49.511Z,0.28
2022-12-18T19:39:19.243Z,0.26
2022-12-18T19:41:46.868Z,0.42
2022-12-18T19:44:15.996Z,0.47
2022-12-18T19:46:44.145Z,0.32
2022-12-18T19:49:17.558Z,0.41
2022-12-18T19:51:45.783Z,0.36
2022-12-18T19:54:17.177Z,0.33
2022-12-18T19:56:45.407Z,0.39
2022-12-18T19:59:12.535Z,0.52
2022-12-18T20:01:40.006Z,0.40
2022-12-18T20:04:07.570Z,0.42
2022-12-18T20:06:46.380Z,0.42
2022-12-18T20:09:13.578Z,0.42
2022-12-18T20:11:42.043Z,0.45
2022-12-18T20:14:16.900Z,0.39
2022-12-18T20:16:50.143Z,0.50
2022-12-18T20:19:17.571Z,0.45
2022-12-18T20:21:44.805Z,0.61
2022-12-18T20:24:12.953Z,0.50
2022-12-18T20:26:40.644Z,0.58
2022-12-18T20:29:08.939Z,0.54
2022-12-18T20:31:36.147Z,0.53
2022-12-18T20:34:04.900Z,0.52
2022-12-18T20:36:34.227Z,0.59
2022-12-18T20:39:05.385Z,0.59
2022-12-18T20:41:37.871Z,0.53
2022-12-18T20:44:22.644Z,0.49
2022-12-18T20:47:00.349Z,0.50
2022-12-18T20:49:33.063Z,0.50
2022-12-18T20:52:02.385Z,0.48
2022-12-18T20:54:29.980Z,0.58
2022-12-18T20:56:57.028Z,0.59
2022-12-18T20:59:25.659Z,0.52
2022-12-18T21:01:56.236Z,0.57
2022-12-18T21:04:23.645Z,0.50
2022-12-18T21:06:57.855Z,0.57
2022-12-18T21:09:37.487Z,0.60
2022-12-18T21:12:34.860Z,0.49
2022-12-18T21:15:10.123Z,0.48
2022-12-18T21:17:44.058Z,0.51
2022-12-18T21:20:17.761Z,0.56
2022-12-18T21:22:46.901Z,0.61
2022-12-18T21:25:13.770Z,0.56
2022-12-18T21:27:41.142Z,0.57
2022-12-18T21:30:08.785Z,0.58
2022-12-18T21:32:35.836Z,0.62
2022-12-18T21:35:02.681Z,0.59
2022-12-18T21:37:29.678Z,0.50
2022-12-18T21:39:56.367Z,0.53
2022-12-18T21:42:41.835Z,0.57
2022-12-18T21:45:09.128Z,0.56
2022-12-18T21:47:36.248Z,0.63
2022-12-18T21:50:03.839Z,0.65
2022-12-18T21:52:32.023Z,0.65
2022-12-18T21:55:07.937Z,0.59
2022-12-18T21:57:37.863Z,0.60
2022-12-18T22:00:06.662Z,0.58
2022-12-18T22:02:33.542Z,0.64
2022-12-18T22:05:00.719Z,0.61
2022-12-18T22:07:29.281Z,0.64
2022-12-18T22:09:56.210Z,0.65
2022-12-18T22:12:43.192Z,0.62
2022-12-18T22:15:13.896Z,0.68
2022-12-18T22:17:50.768Z,0.63
2022-12-18T22:20:19.977Z,0.66
2022-12-18T22:22:51.603Z,0.67
2022-12-18T22:25:18.475Z,0.81
2022-12-18T22:28:05.357Z,0.68
2022-12-18T22:30:33.196Z,0.69
2022-12-18T22:33:01.086Z,0.68
2022-12-18T22:35:28.653Z,0.67
2022-12-18T22:37:55.804Z,0.77
2022-12-18T22:40:26.936Z,0.81
2022-12-18T22:42:54.823Z,0.67
2022-12-18T22:45:23.025Z,0.70
2022-12-18T22:47:50.453Z,0.73
2022-12-18T22:50:17.771Z,0.78
2022-12-18T22:52:44.566Z,0.79
2022-12-18T22:55:11.407Z,0.83
2022-12-18T22:57:38.038Z,0.74
2022-12-18T23:00:12.199Z,0.81
2022-12-18T23:02:39.250Z,0.81
2022-12-18T23:05:07.712Z,0.85
2022-12-18T23:07:36.133Z,0.96
2022-12-18T23:10:03.497Z,0.84
2022-12-18T23:12:30.583Z,0.83
2022-12-18T23:14:57.591Z,0.83
2022-12-18T23:17:24.743Z,0.84
2022-12-18T23:19:51.578Z,0.81
2022-12-18T23:22:19.917Z,0.83
2022-12-18T23:24:47.338Z,0.86
2022-12-18T23:27:14.466Z,0.87
2022-12-18T23:29:41.755Z,0.84
2022-12-18T23:32:09.004Z,0.94
2022-12-18T23:34:36.262Z,0.91
2022-12-18T23:37:03.919Z,0.91
2022-12-18T23:39:32.567Z,0.85
2022-12-18T23:42:00.028Z,0.91
2022-12-18T23:44:27.534Z,0.95
2022-12-18T23:46:55.107Z,0.95
2022-12-18T23:49:22.370Z,0.97
2022-12-18T23:51:49.620Z,0.95
2022-12-18T23:54:16.581Z,1.02
2022-12-18T23:56:43.788Z,0.97
2022-12-18T23:59:10.623Z,1.02
